createdAt,value
2023-03-04T00:01:15.895Z,3.32
2023-03-04T00:03:42.814Z,3.26
2023-03-04T00:06:09.710Z,3.31
2023-03-04T00:08:36.275Z,3.20
2023-03-04T00:11:02.745Z,3.10
2023-03-04T00:13:29.313Z,3.23
2023-03-04T00:15:55.887Z,3.38
2023-03-04T00:18:22.342Z,3.57
2023-03-04T00:20:49.770Z,3.57
2023-03-04T00:23:16.685Z,3.62
2023-03-04T00:25:43.727Z,3.68
2023-03-04T00:28:10.493Z,3.77
2023-03-04T00:30:37.019Z,3.85
2023-03-04T00:33:03.544Z,3.79
2023-03-04T00:35:30.165Z,3.77
2023-03-04T00:37:56.755Z,3.85
2023-03-04T00:40:23.216Z,3.87
2023-03-04T00:42:49.839Z,3.87
2023-03-04T00:45:16.373Z,3.93
2023-03-04T00:47:42.913Z,4.02
2023-03-04T00:50:10.209Z,3.94
2023-03-04T00:52:36.709Z,3.97
2023-03-04T00:55:03.521Z,4.01
2023-03-04T00:57:29.973Z,3.97
2023-03-04T00:59:56.499Z,3.97
2023-03-04T01:02:23.139Z,3.97
2023-03-04T01:04:49.698Z,3.93
2023-03-04T01:07:16.304Z,4.05
2023-03-04T01:09:42.843Z,3.99
2023-03-04T01:12:09.398Z,4.07
2023-03-04T01:14:35.938Z,4.12
2023-03-04T01:17:02.545Z,4.10
2023-03-04T01:19:29.083Z,4.15
2023-03-04T01:21:55.596Z,4.14
2023-03-04T01:24:22.346Z,4.13
2023-03-04T01:26:48.842Z,4.08
2023-03-04T01:29:15.350Z,4.09
2023-03-04T01:31:41.810Z,4.07
2023-03-04T01:34:09.872Z,4.06
2023-03-04T01:36:36.502Z,4.03
2023-03-04T01:39:03.473Z,4.10
2023-03-04T01:41:29.991Z,4.00
2023-03-04T01:44:00.814Z,3.99
2023-03-04T01:46:27.590Z,3.93
2023-03-04T01:48:54.382Z,3.97
2023-03-04T01:51:22.008Z,4.02
2023-03-04T01:53:54.871Z,4.07
2023-03-04T01:56:28.111Z,3.97
2023-03-04T01:59:15.992Z,4.00
2023-03-04T02:01:48.062Z,3.88
2023-03-04T02:04:16.429Z,3.83
2023-03-04T02:06:43.615Z,3.81
2023-03-04T02:09:10.616Z,3.71
2023-03-04T02:11:37.885Z,3.77
2023-03-04T02:14:05.846Z,3.77
2023-03-04T02:16:32.993Z,3.75
2023-03-04T02:19:00.419Z,3.73
2023-03-04T02:21:33.247Z,3.79
2023-03-04T02:24:24.181Z,3.73
2023-03-04T02:26:50.819Z,3.66
2023-03-04T02:29:18.041Z,3.68
2023-03-04T02:31:49.987Z,3.61
2023-03-04T02:34:18.288Z,3.65
2023-03-04T02:36:46.274Z,3.58
2023-03-04T02:39:33.664Z,3.52
2023-03-04T02:42:01.906Z,3.49
2023-03-04T02:44:31.284Z,3.34
2023-03-04T02:46:59.309Z,3.34
2023-03-04T02:49:28.062Z,3.45
2023-03-04T02:52:07.070Z,3.40
2023-03-04T02:54:34.671Z,3.43
2023-03-04T02:57:07.794Z,3.18
2023-03-04T02:59:35.864Z,3.15
2023-03-04T03:02:02.507Z,3.12
2023-03-04T03:04:29.435Z,3.25
2023-03-04T03:06:56.016Z,3.39
2023-03-04T03:09:23.002Z,3.42
2023-03-04T03:11:49.738Z,3.43
2023-03-04T03:14:16.464Z,3.48
2023-03-04T03:16:43.478Z,3.50
2023-03-04T03:19:10.141Z,3.48
2023-03-04T03:21:36.609Z,3.42
2023-03-04T03:24:03.164Z,3.44
2023-03-04T03:26:29.680Z,3.47
2023-03-04T03:28:56.159Z,3.53
2023-03-04T03:31:22.689Z,3.53
2023-03-04T03:33:49.426Z,3.55
2023-03-04T03:36:15.987Z,3.50
2023-03-04T03:38:42.515Z,3.41
2023-03-04T03:41:09.106Z,3.37
2023-03-04T03:43:35.641Z,3.33
2023-03-04T03:46:02.206Z,3.30
2023-03-04T03:48:28.710Z,3.33
2023-03-04T03:50:55.203Z,3.28
2023-03-04T03:53:21.716Z,3.19
2023-03-04T03:55:48.222Z,3.24
2023-03-04T03:58:14.728Z,3.22
2023-03-04T04:00:41.253Z,3.17
2023-03-04T04:03:08.044Z,3.16
2023-03-04T04:05:34.560Z,3.07
2023-03-04T04:08:01.037Z,3.08
2023-03-04T04:10:27.613Z,2.94
2023-03-04T04:12:54.066Z,3.14
2023-03-04T04:15:20.678Z,3.06
2023-03-04T04:17:47.219Z,3.03
2023-03-04T04:20:13.741Z,3.05
2023-03-04T04:22:40.340Z,3.02
2023-03-04T04:25:08.912Z,2.96
2023-03-04T04:27:35.600Z,2.92
2023-03-04T04:30:02.304Z,2.90
2023-03-04T04:32:28.806Z,2.86
2023-03-04T04:34:55.316Z,2.81
2023-03-04T04:37:21.830Z,2.76
2023-03-04T04:39:48.382Z,2.88
2023-03-04T04:42:14.947Z,2.79
2023-03-04T04:44:41.454Z,2.84
2023-03-04T04:47:09.171Z,2.88
2023-03-04T04:49:35.896Z,2.77
2023-03-04T04:52:02.597Z,2.75
2023-03-04T04:54:29.149Z,2.69
2023-03-04T04:56:55.710Z,2.64
2023-03-04T04:59:22.348Z,2.55
2023-03-04T05:01:48.794Z,2.56
2023-03-04T05:04:15.375Z,2.54
2023-03-04T05:06:42.029Z,2.45
2023-03-04T05:09:08.574Z,2.48
2023-03-04T05:11:35.054Z,2.44
2023-03-04T05:14:01.834Z,2.41
2023-03-04T05:16:28.472Z,2.44
2023-03-04T05:18:54.948Z,2.43
2023-03-04T05:21:21.409Z,2.47
2023-03-04T05:23:47.869Z,2.37
2023-03-04T05:26:17.144Z,2.34
2023-03-04T05:28:44.530Z,2.39
2023-03-04T05:31:11.659Z,2.35
2023-03-04T05:33:38.225Z,2.34
2023-03-04T05:36:06.575Z,2.36
2023-03-04T05:38:33.536Z,2.31
2023-03-04T05:41:02.716Z,2.38
2023-03-04T05:43:31.611Z,2.31
2023-03-04T05:45:58.194Z,2.34
2023-03-04T05:48:24.775Z,2.27
2023-03-04T05:50:59.934Z,2.27
2023-03-04T05:53:26.520Z,2.19
2023-03-04T05:55:53.386Z,2.19
2023-03-04T05:58:20.669Z,2.16
2023-03-04T06:00:47.778Z,2.11
2023-03-04T06:03:23.066Z,2.05
2023-03-04T06:05:49.603Z,2.08
2023-03-04T06:08:18.209Z,2.19
2023-03-04T06:10:45.227Z,2.07
2023-03-04T06:13:11.823Z,2.08
2023-03-04T06:15:39.868Z,2.10
2023-03-04T06:18:07.633Z,2.21
2023-03-04T06:20:34.150Z,2.07
2023-03-04T06:23:00.658Z,2.05
2023-03-04T06:25:28.166Z,2.02
2023-03-04T06:27:55.290Z,2.01
2023-03-04T06:30:22.027Z,2.03
2023-03-04T06:32:48.569Z,2.09
2023-03-04T06:35:16.669Z,2.13
2023-03-04T06:37:43.566Z,2.18
2023-03-04T06:40:11.182Z,2.20
2023-03-04T06:42:37.819Z,2.19
2023-03-04T06:45:05.005Z,2.26
2023-03-04T06:47:31.563Z,2.31
2023-03-04T06:49:58.494Z,2.32
2023-03-04T06:52:25.059Z,2.48
2023-03-04T06:54:51.574Z,2.67
2023-03-04T06:57:18.249Z,2.70
2023-03-04T06:59:44.816Z,2.83
2023-03-04T07:02:14.282Z,2.87
2023-03-04T07:04:41.094Z,3.03
2023-03-04T07:07:07.593Z,3.24
2023-03-04T07:09:34.304Z,3.38
2023-03-04T07:12:01.054Z,3.61
2023-03-04T07:14:28.029Z,3.84
2023-03-04T07:16:54.890Z,3.92
2023-03-04T07:19:21.657Z,4.10
2023-03-04T07:21:48.207Z,4.15
2023-03-04T07:24:14.935Z,4.43
2023-03-04T07:26:41.404Z,4.56
2023-03-04T07:29:07.925Z,4.71
2023-03-04T07:31:35.397Z,4.87
2023-03-04T07:34:05.432Z,4.94
2023-03-04T07:36:33.344Z,4.93
2023-03-04T07:38:59.845Z,5.24
2023-03-04T07:41:28.231Z,5.49
2023-03-04T07:43:56.445Z,5.61
2023-03-04T07:46:23.250Z,5.65
2023-03-04T07:48:49.799Z,5.83
2023-03-04T07:51:19.901Z,6.13
2023-03-04T07:53:49.331Z,6.37
2023-03-04T07:56:19.695Z,6.37
2023-03-04T07:58:46.749Z,6.43
2023-03-04T08:01:15.646Z,6.85
2023-03-04T08:03:42.517Z,6.82
2023-03-04T08:06:11.510Z,7.18
2023-03-04T08:08:38.478Z,7.26
2023-03-04T08:11:10.641Z,7.31
2023-03-04T08:13:37.476Z,7.39
2023-03-04T08:16:04.975Z,7.41
2023-03-04T08:18:31.760Z,7.44
2023-03-04T08:20:58.311Z,7.89
2023-03-04T08:23:25.262Z,7.96
2023-03-04T08:25:51.862Z,8.07
2023-03-04T08:28:18.757Z,8.23
2023-03-04T08:30:45.628Z,8.23
2023-03-04T08:33:12.151Z,8.59
2023-03-04T08:35:40.297Z,8.50
2023-03-04T08:38:07.113Z,8.41
2023-03-04T08:40:33.723Z,8.68
2023-03-04T08:43:00.757Z,8.88
2023-03-04T08:45:27.329Z,8.67
2023-03-04T08:47:53.834Z,9.00
2023-03-04T08:50:22.494Z,9.32
2023-03-04T08:52:49.493Z,9.48
2023-03-04T08:55:16.353Z,9.50
2023-03-04T08:57:42.838Z,9.76
2023-03-04T09:00:10.682Z,10.26
2023-03-04T09:02:37.144Z,10.41
2023-03-04T09:05:04.105Z,10.56
2023-03-04T09:07:30.667Z,10.54
2023-03-04T09:09:57.184Z,10.91
2023-03-04T09:12:23.761Z,11.11
2023-03-04T09:15:04.567Z,11.38
2023-03-04T09:17:35.221Z,11.33
2023-03-04T09:20:04.270Z,11.75
2023-03-04T09:22:31.131Z,11.86
2023-03-04T09:24:57.632Z,12.05
2023-03-04T09:27:24.500Z,12.13
2023-03-04T09:29:51.092Z,12.05
2023-03-04T09:32:17.604Z,12.73
2023-03-04T09:34:44.180Z,12.66
2023-03-04T09:37:10.839Z,12.95
2023-03-04T09:39:37.535Z,13.23
2023-03-04T09:42:06.286Z,13.36
2023-03-04T09:44:40.956Z,13.57
2023-03-04T09:47:12.618Z,13.02
2023-03-04T09:49:42.168Z,13.08
2023-03-04T09:52:42.106Z,12.56
2023-03-04T09:55:28.316Z,13.18
2023-03-04T09:58:07.121Z,12.92
2023-03-04T10:00:42.855Z,12.95
2023-03-04T10:03:12.269Z,12.54
2023-03-04T10:06:00.881Z,12.61
2023-03-04T10:08:45.605Z,13.09
2023-03-04T10:11:21.475Z,12.70
2023-03-04T10:14:01.482Z,12.91
2023-03-04T10:16:34.730Z,13.29
2023-03-04T10:19:13.453Z,12.53
2023-03-04T10:21:44.880Z,13.32
2023-03-04T10:24:14.596Z,13.40
2023-03-04T10:26:45.834Z,13.72
2023-03-04T10:29:18.464Z,13.71
2023-03-04T10:31:46.250Z,14.09
2023-03-04T10:34:14.392Z,14.43
2023-03-04T10:37:05.646Z,14.48
2023-03-04T10:39:35.853Z,15.05
2023-03-04T10:42:07.655Z,15.25
2023-03-04T10:44:35.207Z,14.82
2023-03-04T10:47:02.270Z,14.96
2023-03-04T10:49:29.854Z,15.38
2023-03-04T10:52:21.250Z,14.84
2023-03-04T10:54:52.834Z,14.74
2023-03-04T10:57:21.988Z,14.88
2023-03-04T11:00:00.085Z,14.71
2023-03-04T11:02:36.527Z,14.47
2023-03-04T11:05:18.470Z,14.92
2023-03-04T11:07:57.487Z,15.09
2023-03-04T11:10:31.905Z,15.42
2023-03-04T11:12:58.296Z,15.39
2023-03-04T11:15:29.369Z,15.08
2023-03-04T11:18:12.408Z,15.10
2023-03-04T11:20:49.357Z,15.17
2023-03-04T11:23:23.737Z,14.67
2023-03-04T11:25:58.677Z,15.10
2023-03-04T11:29:05.671Z,16.10
2023-03-04T11:31:40.387Z,15.87
2023-03-04T11:34:30.003Z,16.24
2023-03-04T11:37:03.599Z,16.14
2023-03-04T11:39:35.789Z,16.59
2023-03-04T11:42:13.103Z,16.44
2023-03-04T11:44:41.510Z,16.55
2023-03-04T11:47:45.333Z,16.60
2023-03-04T11:50:21.066Z,16.61
2023-03-04T11:53:23.835Z,16.63
2023-03-04T11:56:27.344Z,16.50
2023-03-04T11:59:27.930Z,16.27
2023-03-04T12:02:17.724Z,16.22
2023-03-04T12:04:44.223Z,16.37
2023-03-04T12:07:41.950Z,16.41
2023-03-04T12:10:37.095Z,16.13
2023-03-04T12:13:22.026Z,15.88
2023-03-04T12:16:13.054Z,16.32
2023-03-04T12:19:05.020Z,16.26
2023-03-04T12:21:46.375Z,15.67
2023-03-04T12:24:21.995Z,16.34
2023-03-04T12:27:40.981Z,16.20
2023-03-04T12:30:26.976Z,16.14
2023-03-04T12:33:06.605Z,15.80
2023-03-04T12:35:47.235Z,16.06
2023-03-04T12:38:19.873Z,16.23
2023-03-04T12:40:52.939Z,15.00
2023-03-04T12:43:44.976Z,15.30
2023-03-04T12:46:26.301Z,15.82
2023-03-04T12:49:35.706Z,15.22
2023-03-04T12:52:43.443Z,16.11
2023-03-04T12:55:17.287Z,16.29
2023-03-04T12:57:43.992Z,16.31
2023-03-04T13:00:13.087Z,16.24
2023-03-04T13:02:52.707Z,16.23
2023-03-04T13:05:46.917Z,15.83
2023-03-04T13:08:31.425Z,15.72
2023-03-04T13:11:03.586Z,16.06
2023-03-04T13:13:34.515Z,16.35
2023-03-04T13:16:11.495Z,16.17
2023-03-04T13:18:40.886Z,16.52
2023-03-04T13:21:20.872Z,16.20
2023-03-04T13:23:47.506Z,16.46
2023-03-04T13:26:28.372Z,16.10
2023-03-04T13:29:08.762Z,15.90
2023-03-04T13:32:05.526Z,15.93
2023-03-04T13:34:53.987Z,16.06
2023-03-04T13:37:30.070Z,16.03
2023-03-04T13:40:18.201Z,15.39
2023-03-04T13:42:45.056Z,15.39
2023-03-04T13:45:36.059Z,15.17
2023-03-04T13:48:08.156Z,14.73
2023-03-04T13:50:39.286Z,14.66
2023-03-04T13:53:37.961Z,14.18
2023-03-04T13:56:40.858Z,14.47
2023-03-04T13:59:07.292Z,14.89
2023-03-04T14:01:41.456Z,14.68
2023-03-04T14:04:38.773Z,14.42
2023-03-04T14:07:21.849Z,14.24
2023-03-04T14:09:56.259Z,14.45
2023-03-04T14:12:23.243Z,14.58
2023-03-04T14:14:53.987Z,14.31
2023-03-04T14:17:33.637Z,13.89
2023-03-04T14:20:01.133Z,13.86
2023-03-04T14:22:33.804Z,13.84
2023-03-04T14:25:19.140Z,13.46
2023-03-04T14:27:47.098Z,13.20
2023-03-04T14:30:39.186Z,13.25
2023-03-04T14:33:13.967Z,12.63
2023-03-04T14:35:50.106Z,12.61
2023-03-04T14:38:42.646Z,12.43
2023-03-04T14:41:18.662Z,12.27
2023-03-04T14:44:08.043Z,12.21
2023-03-04T14:46:40.343Z,12.13
2023-03-04T14:49:10.741Z,11.87
2023-03-04T14:51:39.698Z,11.36
2023-03-04T14:54:06.717Z,11.15
2023-03-04T14:56:35.850Z,11.06
2023-03-04T14:59:02.598Z,11.14
2023-03-04T15:01:35.397Z,10.88
2023-03-04T15:04:03.521Z,10.61
2023-03-04T15:06:35.500Z,10.36
2023-03-04T15:09:08.282Z,10.40
2023-03-04T15:11:52.495Z,10.60
2023-03-04T15:14:52.051Z,10.57
2023-03-04T15:17:38.503Z,10.64
2023-03-04T15:20:08.031Z,10.46
2023-03-04T15:23:07.350Z,10.52
2023-03-04T15:25:35.203Z,10.43
2023-03-04T15:28:03.066Z,10.31
2023-03-04T15:30:34.373Z,10.26
2023-03-04T15:33:01.079Z,10.27
2023-03-04T15:35:30.438Z,10.29
2023-03-04T15:37:57.742Z,10.13
2023-03-04T15:40:26.508Z,10.05
2023-03-04T15:42:54.757Z,10.01
2023-03-04T15:45:24.576Z,10.03
2023-03-04T15:47:51.066Z,9.75
2023-03-04T15:50:19.196Z,9.58
2023-03-04T15:52:46.117Z,9.63
2023-03-04T15:55:18.746Z,9.57
2023-03-04T15:57:52.486Z,9.53
2023-03-04T16:00:19.471Z,9.54
2023-03-04T16:02:46.394Z,9.60
2023-03-04T16:05:12.970Z,9.41
2023-03-04T16:07:42.803Z,9.44
2023-03-04T16:10:20.044Z,9.30
2023-03-04T16:12:46.772Z,9.23
2023-03-04T16:15:16.581Z,9.21
2023-03-04T16:17:45.778Z,9.11
2023-03-04T16:20:14.626Z,9.05
2023-03-04T16:22:43.758Z,8.92
2023-03-04T16:25:12.906Z,9.01
2023-03-04T16:27:40.820Z,9.01
2023-03-04T16:30:19.610Z,8.98
2023-03-04T16:32:46.165Z,8.86
2023-03-04T16:35:13.999Z,8.79
2023-03-04T16:37:41.486Z,8.87
2023-03-04T16:40:12.398Z,8.81
2023-03-04T16:42:40.118Z,8.86
2023-03-04T16:45:10.493Z,8.69
2023-03-04T16:47:37.239Z,8.74
2023-03-04T16:50:04.055Z,8.65
2023-03-04T16:52:33.317Z,8.49
2023-03-04T16:55:00.428Z,8.38
2023-03-04T16:57:28.699Z,8.43
2023-03-04T16:59:55.481Z,8.13
2023-03-04T17:02:24.489Z,7.99
2023-03-04T17:04:51.123Z,8.05
2023-03-04T17:07:17.868Z,8.02
2023-03-04T17:09:45.414Z,7.98
2023-03-04T17:12:12.582Z,7.97
2023-03-04T17:14:42.229Z,7.89
2023-03-04T17:17:08.902Z,7.77
2023-03-04T17:19:35.540Z,7.64
2023-03-04T17:22:02.617Z,7.64
2023-03-04T17:24:29.625Z,7.52
2023-03-04T17:26:56.274Z,7.43
2023-03-04T17:29:23.294Z,7.22
2023-03-04T17:31:49.768Z,7.23
2023-03-04T17:34:18.054Z,7.21
2023-03-04T17:36:44.611Z,7.16
2023-03-04T17:39:11.576Z,7.11
2023-03-04T17:41:38.069Z,7.00
2023-03-04T17:44:05.907Z,7.00
2023-03-04T17:46:32.467Z,6.92
2023-03-04T17:48:59.527Z,6.84
2023-03-04T17:51:37.588Z,6.70
2023-03-04T17:54:05.903Z,6.70
2023-03-04T17:56:33.586Z,6.62
2023-03-04T17:59:04.048Z,6.55
2023-03-04T18:01:30.535Z,6.56
2023-03-04T18:03:56.993Z,6.60
2023-03-04T18:06:25.168Z,6.44
2023-03-04T18:08:52.990Z,6.33
2023-03-04T18:11:21.465Z,6.22
2023-03-04T18:13:48.847Z,6.22
2023-03-04T18:16:18.855Z,6.21
2023-03-04T18:18:45.750Z,6.18
2023-03-04T18:21:13.602Z,6.21
2023-03-04T18:23:40.170Z,6.05
2023-03-04T18:26:06.825Z,5.98
2023-03-04T18:28:33.535Z,5.94
2023-03-04T18:31:01.143Z,5.85
2023-03-04T18:33:29.389Z,5.84
2023-03-04T18:36:00.937Z,5.82
2023-03-04T18:38:28.019Z,5.71
2023-03-04T18:40:59.056Z,5.67
2023-03-04T18:43:26.712Z,5.64
2023-03-04T18:46:30.836Z,5.63
2023-03-04T18:49:01.883Z,5.53
2023-03-04T18:51:28.624Z,5.42
2023-03-04T18:53:55.144Z,5.38
2023-03-04T18:56:38.195Z,5.35
2023-03-04T18:59:15.230Z,5.25
2023-03-04T19:01:42.032Z,5.24
2023-03-04T19:04:09.357Z,5.21
2023-03-04T19:06:35.967Z,5.18
2023-03-04T19:09:02.625Z,5.17
2023-03-04T19:11:31.482Z,5.09
2023-03-04T19:13:58.039Z,5.17
2023-03-04T19:16:25.271Z,5.16
2023-03-04T19:18:52.306Z,5.12
2023-03-04T19:21:19.406Z,5.05
2023-03-04T19:23:46.056Z,5.00
2023-03-04T19:26:13.737Z,4.94
2023-03-04T19:28:40.291Z,4.88
2023-03-04T19:31:08.315Z,4.87
2023-03-04T19:33:36.818Z,4.94
2023-03-04T19:36:05.540Z,4.88
2023-03-04T19:38:33.527Z,4.84
2023-03-04T19:41:09.058Z,4.77
2023-03-04T19:43:38.609Z,4.67
2023-03-04T19:46:07.497Z,4.60
2023-03-04T19:48:35.475Z,4.68
2023-03-04T19:51:04.491Z,4.57
2023-03-04T19:53:34.631Z,4.69
2023-03-04T19:56:01.541Z,4.41
2023-03-04T19:58:28.095Z,4.41
2023-03-04T20:00:56.107Z,4.43
2023-03-04T20:03:24.067Z,4.44
2023-03-04T20:05:50.598Z,4.44
2023-03-04T20:08:17.166Z,4.52
2023-03-04T20:10:43.741Z,4.47
2023-03-04T20:13:10.365Z,4.41
2023-03-04T20:15:37.551Z,4.33
2023-03-04T20:18:04.565Z,4.35
2023-03-04T20:20:31.129Z,4.35
2023-03-04T20:22:58.072Z,4.31
2023-03-04T20:25:25.287Z,4.30
2023-03-04T20:27:51.830Z,4.34
2023-03-04T20:30:18.696Z,4.36
2023-03-04T20:32:45.444Z,4.20
2023-03-04T20:35:15.007Z,4.21
2023-03-04T20:37:42.598Z,4.20
2023-03-04T20:40:13.010Z,4.19
2023-03-04T20:42:39.527Z,4.18
2023-03-04T20:45:06.935Z,4.20
2023-03-04T20:47:33.457Z,4.17
2023-03-04T20:49:59.969Z,4.18
2023-03-04T20:52:26.537Z,4.18
2023-03-04T20:54:53.049Z,4.11
2023-03-04T20:57:19.701Z,4.05
2023-03-04T20:59:46.159Z,4.04
2023-03-04T21:02:15.654Z,4.07
2023-03-04T21:04:42.264Z,4.06
2023-03-04T21:07:09.164Z,4.05
2023-03-04T21:09:35.781Z,3.90
2023-03-04T21:12:02.342Z,3.95
2023-03-04T21:14:30.994Z,3.93
2023-03-04T21:17:00.117Z,4.04
2023-03-04T21:19:30.031Z,3.94
2023-03-04T21:21:58.070Z,3.95
2023-03-04T21:24:28.283Z,3.83
2023-03-04T21:26:54.887Z,3.86
2023-03-04T21:29:23.928Z,3.74
2023-03-04T21:32:13.040Z,3.66
2023-03-04T21:34:52.029Z,3.65
2023-03-04T21:37:20.601Z,3.65
2023-03-04T21:39:47.286Z,3.74
2023-03-04T21:42:13.994Z,3.70
2023-03-04T21:44:49.014Z,3.75
2023-03-04T21:47:16.985Z,3.64
2023-03-04T21:49:43.544Z,3.70
2023-03-04T21:52:10.024Z,3.65
2023-03-04T21:54:36.593Z,3.61
2023-03-04T21:57:03.331Z,3.71
2023-03-04T21:59:29.875Z,3.62
2023-03-04T22:01:56.495Z,3.61
2023-03-04T22:04:23.070Z,3.69
2023-03-04T22:06:49.625Z,3.77
2023-03-04T22:09:16.152Z,3.69
2023-03-04T22:11:42.739Z,3.62
2023-03-04T22:14:10.648Z,3.71
2023-03-04T22:16:48.993Z,3.69
2023-03-04T22:19:19.524Z,3.79
2023-03-04T22:21:46.179Z,3.80
2023-03-04T22:24:12.671Z,3.82
2023-03-04T22:26:39.146Z,3.85
2023-03-04T22:29:06.386Z,3.85
2023-03-04T22:31:35.112Z,3.92
2023-03-04T22:34:07.665Z,3.87
2023-03-04T22:36:36.744Z,3.82
2023-03-04T22:39:06.317Z,3.76
2023-03-04T22:41:33.328Z,3.84
2023-03-04T22:44:00.336Z,3.82
2023-03-04T22:46:30.602Z,3.81
2023-03-04T22:48:59.483Z,3.76
2023-03-04T22:51:26.493Z,3.78
2023-03-04T22:53:53.178Z,3.85
2023-03-04T22:56:20.405Z,3.84
2023-03-04T22:58:47.965Z,3.83
2023-03-04T23:01:16.483Z,3.83
2023-03-04T23:03:45.554Z,3.91
2023-03-04T23:06:14.955Z,4.02
2023-03-04T23:08:44.146Z,4.04
2023-03-04T23:11:13.629Z,4.12
2023-03-04T23:13:41.233Z,4.08
2023-03-04T23:16:10.429Z,3.99
2023-03-04T23:18:39.090Z,3.90
2023-03-04T23:21:11.000Z,4.00
2023-03-04T23:23:38.923Z,3.94
2023-03-04T23:26:05.967Z,3.99
2023-03-04T23:28:32.619Z,4.02
2023-03-04T23:30:59.139Z,3.97
2023-03-04T23:33:25.765Z,4.04
2023-03-04T23:35:52.335Z,4.04
2023-03-04T23:38:18.903Z,3.95
2023-03-04T23:40:45.391Z,3.93
2023-03-04T23:43:11.876Z,3.89
2023-03-04T23:45:38.342Z,3.75
2023-03-04T23:48:05.148Z,3.62
2023-03-04T23:50:32.211Z,3.59
2023-03-04T23:52:58.722Z,3.59
2023-03-04T23:55:25.269Z,3.57
2023-03-04T23:57:51.713Z,3.55
